Time;durP1;ratioP1;P1;durP2;ratioP2;P2;SDS_P1;SDS_P2;PMS_P1;PMS_P2;Temp;Humidity;BMP_temperature;BMP_pressure;BME280_temperature;BME280_humidity;BME280_pressure;Samples;Min_cycle;Max_cycle;Signal;HPM_P1;HPM_P2
2023/12/03 00:01:41;;;;;;;15.27;8.85;;;-0.20;72.20;;;;;;6277624;22;20643;-73
2023/12/03 00:04:08;;;;;;;12.55;8.98;;;-0.30;72.20;;;;;;6277465;22;20208;-72
2023/12/03 00:06:36;;;;;;;12.65;7.65;;;-0.30;72.40;;;;;;6277844;22;20208;-72
2023/12/03 00:09:02;;;;;;;12.48;7.50;;;-0.30;72.30;;;;;;6277966;22;20464;-72
2023/12/03 00:11:31;;;;;;;10.05;7.43;;;-0.30;72.50;;;;;;6277884;22;20189;-72
2023/12/03 00:13:58;;;;;;;14.55;7.82;;;-0.30;72.20;;;;;;6277248;22;20632;-72
2023/12/03 00:16:25;;;;;;;9.93;7.57;;;-0.30;71.90;;;;;;6277307;22;20228;-72
2023/12/03 00:18:52;;;;;;;13.45;8.88;;;-0.30;71.80;;;;;;6277803;22;20208;-72
2023/12/03 00:21:19;;;;;;;12.07;9.55;;;-0.30;71.90;;;;;;6277778;22;20193;-72
2023/12/03 00:23:46;;;;;;;10.15;7.03;;;-0.30;72.10;;;;;;6277941;22;20193;-72
2023/12/03 00:26:13;;;;;;;11.65;7.85;;;-0.40;72.00;;;;;;6277372;22;20493;-72
2023/12/03 00:28:41;;;;;;;13.38;7.70;;;-0.40;71.90;;;;;;6277625;22;20165;-72
2023/12/03 00:31:08;;;;;;;11.23;7.50;;;-0.40;71.90;;;;;;6277560;22;20196;-72
2023/12/03 00:33:35;;;;;;;10.77;8.07;;;-0.40;72.10;;;;;;6277692;22;20172;-73
2023/12/03 00:36:02;;;;;;;12.77;8.02;;;-0.40;72.20;;;;;;6277497;22;20217;-72
2023/12/03 00:38:29;;;;;;;12.10;8.38;;;-0.40;72.40;;;;;;6277610;22;20487;-72
2023/12/03 00:40:56;;;;;;;10.98;8.18;;;-0.50;71.80;;;;;;6277213;22;20482;-72
2023/12/03 00:43:23;;;;;;;13.55;8.15;;;-0.50;71.20;;;;;;6277255;22;20200;-72
2023/12/03 00:45:53;;;;;;;11.40;8.25;;;-0.50;71.20;;;;;;6277493;22;20490;-72
2023/12/03 00:48:20;;;;;;;14.70;8.90;;;-0.60;71.00;;;;;;6277458;22;20166;-72
2023/12/03 00:50:48;;;;;;;13.00;7.90;;;-0.60;70.90;;;;;;6277637;22;20173;-72
2023/12/03 00:53:15;;;;;;;10.98;7.65;;;-0.60;71.30;;;;;;6277053;22;20165;-72
2023/12/03 00:55:42;;;;;;;13.02;8.88;;;-0.60;71.30;;;;;;6277343;22;20200;-73
2023/12/03 00:58:10;;;;;;;11.70;8.48;;;-0.60;70.70;;;;;;6277106;22;20608;-72
2023/12/03 01:00:37;;;;;;;12.82;9.40;;;-0.60;70.50;;;;;;6277421;22;20165;-72
2023/12/03 01:03:05;;;;;;;15.52;9.43;;;-0.60;70.20;;;;;;6277099;22;20188;-72
2023/12/03 01:05:32;;;;;;;12.95;9.10;;;-0.60;70.10;;;;;;6277353;22;20240;-72
2023/12/03 01:07:59;;;;;;;13.23;8.93;;;-0.70;69.50;;;;;;6277043;22;20531;-72
2023/12/03 01:10:26;;;;;;;11.68;7.82;;;-0.80;70.20;;;;;;6277403;22;20197;-72
2023/12/03 01:12:53;;;;;;;11.93;7.60;;;-0.70;70.70;;;;;;6277490;22;20516;-72
2023/12/03 01:15:20;;;;;;;12.82;8.30;;;-0.70;70.30;;;;;;6277426;22;20529;-72
2023/12/03 01:17:47;;;;;;;11.10;7.25;;;-0.80;70.30;;;;;;6276794;22;20711;-72
2023/12/03 01:20:15;;;;;;;14.98;8.93;;;-0.70;70.50;;;;;;6277297;22;20193;-72
2023/12/03 01:22:42;;;;;;;14.45;8.90;;;-0.80;70.50;;;;;;6276614;22;20215;-73
2023/12/03 01:25:10;;;;;;;14.75;8.48;;;-0.80;70.80;;;;;;6277080;22;20166;-72
2023/12/03 01:27:37;;;;;;;14.50;9.20;;;-0.80;70.80;;;;;;6276783;22;20173;-72
2023/12/03 01:30:04;;;;;;;16.08;9.70;;;-0.80;70.90;;;;;;6276853;22;20172;-72
2023/12/03 01:32:31;;;;;;;19.35;12.10;;;-0.80;71.00;;;;;;6277214;22;20204;-72
2023/12/03 01:34:58;;;;;;;19.45;11.00;;;-0.80;70.70;;;;;;6276836;22;20172;-72
2023/12/03 01:37:26;;;;;;;21.60;11.57;;;-0.90;70.70;;;;;;6276075;22;20229;-72
2023/12/03 01:39:53;;;;;;;17.25;8.75;;;-0.90;71.10;;;;;;6276666;22;20245;-73
2023/12/03 01:42:21;;;;;;;15.68;10.20;;;-0.90;71.20;;;;;;6277049;22;20173;-72
2023/12/03 01:44:48;;;;;;;15.05;8.60;;;-0.80;71.10;;;;;;6276742;22;20194;-72
2023/12/03 01:47:16;;;;;;;16.77;10.70;;;-0.90;70.80;;;;;;6277065;22;20208;-72
2023/12/03 01:49:43;;;;;;;16.50;10.70;;;-0.90;70.70;;;;;;6277115;22;20515;-73
2023/12/03 01:52:10;;;;;;;18.25;11.10;;;-1.00;70.30;;;;;;6276286;22;20200;-72
2023/12/03 01:54:42;;;;;;;15.73;10.73;;;-1.10;70.10;;;;;;6277018;22;20483;-72
2023/12/03 01:57:10;;;;;;;13.90;9.50;;;-1.20;70.60;;;;;;6278321;22;20205;-72
2023/12/03 01:59:37;;;;;;;14.73;9.75;;;-1.30;70.50;;;;;;6278708;22;20616;-72
2023/12/03 02:02:05;;;;;;;14.60;9.45;;;-1.30;71.30;;;;;;6279305;22;20161;-72
2023/12/03 02:04:31;;;;;;;13.25;8.80;;;-1.30;71.70;;;;;;6279042;22;20165;-72
2023/12/03 02:06:58;;;;;;;16.35;9.30;;;-1.40;71.50;;;;;;6278816;22;20244;-72
2023/12/03 02:09:26;;;;;;;15.13;10.15;;;-1.40;71.60;;;;;;6279243;22;20169;-72
2023/12/03 02:11:54;;;;;;;14.48;8.63;;;-1.40;71.80;;;;;;6278873;22;20479;-72
2023/12/03 02:14:21;;;;;;;13.65;8.82;;;-1.40;72.00;;;;;;6279053;22;20531;-72
2023/12/03 02:16:48;;;;;;;13.80;9.57;;;-1.40;72.00;;;;;;6278754;22;20268;-72
2023/12/03 02:19:16;;;;;;;13.55;9.18;;;-1.50;71.80;;;;;;6278867;22;20173;-72
2023/12/03 02:21:43;;;;;;;18.70;9.70;;;-1.60;71.30;;;;;;6278515;22;20249;-72
2023/12/03 02:24:11;;;;;;;14.10;8.75;;;-1.70;70.60;;;;;;6278523;22;20241;-72
2023/12/03 02:26:38;;;;;;;12.90;9.20;;;-1.90;70.10;;;;;;6278434;22;20169;-72
2023/12/03 02:29:05;;;;;;;17.20;9.90;;;-2.00;70.50;;;;;;6278381;22;20174;-72
2023/12/03 02:31:32;;;;;;;15.52;9.05;;;-2.00;70.90;;;;;;6278427;22;20167;-72
2023/12/03 02:34:06;;;;;;;16.00;9.43;;;-2.00;71.50;;;;;;6277713;22;20166;-72
2023/12/03 02:36:33;;;;;;;13.35;8.63;;;-2.00;71.80;;;;;;6278786;22;20260;-72
2023/12/03 02:39:00;;;;;;;15.38;9.15;;;-2.00;71.70;;;;;;6278399;22;20201;-71
2023/12/03 02:41:29;;;;;;;16.33;8.65;;;-2.10;71.00;;;;;;6278778;22;20169;-72
2023/12/03 02:43:56;;;;;;;13.93;8.95;;;-2.10;72.40;;;;;;6278130;22;20220;-72
2023/12/03 02:46:23;;;;;;;13.27;8.48;;;-2.00;71.70;;;;;;6278310;22;20240;-72
2023/12/03 02:48:50;;;;;;;14.23;8.32;;;-2.10;71.00;;;;;;6278673;22;20248;-72
2023/12/03 02:51:19;;;;;;;11.05;7.00;;;-2.30;70.70;;;;;;6278709;22;20172;-72
2023/12/03 02:53:47;;;;;;;9.50;7.63;;;-2.30;71.00;;;;;;6277668;22;20197;-72
2023/12/03 02:56:14;;;;;;;10.52;7.40;;;-2.40;71.10;;;;;;6278064;22;20197;-72
2023/12/03 02:58:42;;;;;;;11.65;8.60;;;-2.30;71.40;;;;;;6278195;22;20165;-74
2023/12/03 03:01:10;;;;;;;11.90;6.95;;;-2.30;71.40;;;;;;6278624;22;20196;-72
2023/12/03 03:03:37;;;;;;;12.93;7.90;;;-2.40;70.30;;;;;;6277923;22;20612;-73
2023/12/03 03:06:04;;;;;;;10.88;6.55;;;-2.50;69.40;;;;;;6278707;22;20244;-72
2023/12/03 03:08:31;;;;;;;9.10;5.40;;;-2.50;68.90;;;;;;6278314;22;20205;-72
2023/12/03 03:10:58;;;;;;;10.25;5.75;;;-2.50;69.00;;;;;;6278347;22;20165;-72
2023/12/03 03:13:25;;;;;;;12.63;7.90;;;-2.60;68.70;;;;;;6278002;22;20165;-72
2023/12/03 03:15:54;;;;;;;10.00;5.93;;;-2.60;68.70;;;;;;6278135;22;20172;-72
2023/12/03 03:18:21;;;;;;;9.05;6.45;;;-2.60;68.30;;;;;;6278288;22;20186;-72
2023/12/03 03:20:48;;;;;;;10.07;6.70;;;-2.60;68.00;;;;;;6278065;22;20562;-72
2023/12/03 03:23:15;;;;;;;11.15;6.20;;;-2.60;66.60;;;;;;6277356;22;20200;-72
2023/12/03 03:25:42;;;;;;;13.75;8.02;;;-2.70;66.20;;;;;;6278335;22;20204;-72
2023/12/03 03:28:09;;;;;;;9.73;6.55;;;-2.70;67.10;;;;;;6277885;22;20634;-72
2023/12/03 03:30:36;;;;;;;12.18;7.30;;;-2.80;67.00;;;;;;6278245;22;20180;-73
2023/12/03 03:33:05;;;;;;;10.82;7.40;;;-2.70;67.20;;;;;;6278170;22;20197;-72
2023/12/03 03:35:34;;;;;;;10.93;8.02;;;-2.70;67.50;;;;;;6277824;22;20628;-72
2023/12/03 03:38:01;;;;;;;10.35;7.07;;;-2.70;67.90;;;;;;6278014;22;20208;-71
2023/12/03 03:40:28;;;;;;;12.95;8.00;;;-2.80;68.70;;;;;;6277640;22;20197;-72
2023/12/03 03:42:55;;;;;;;12.65;8.15;;;-2.70;69.80;;;;;;6277867;22;20495;-72
2023/12/03 03:45:22;;;;;;;11.68;7.38;;;-2.70;70.10;;;;;;6277266;22;20199;-72
2023/12/03 03:47:49;;;;;;;15.05;8.77;;;-2.70;70.40;;;;;;6278010;22;20170;-72
2023/12/03 03:50:17;;;;;;;13.23;8.23;;;-2.70;70.80;;;;;;6278031;22;20239;-72
2023/12/03 03:52:44;;;;;;;12.20;6.93;;;-2.60;70.90;;;;;;6278121;22;20200;-72
2023/12/03 03:55:11;;;;;;;104.57;30.10;;;-2.60;70.60;;;;;;6277664;22;20173;-71
2023/12/03 03:57:38;;;;;;;14.20;9.05;;;-2.60;70.50;;;;;;6277506;22;20239;-72
2023/12/03 04:00:07;;;;;;;11.30;7.00;;;-2.50;70.00;;;;;;6277660;22;20208;-72
2023/12/03 04:02:33;;;;;;;13.45;7.60;;;-2.60;67.70;;;;;;6251171;22;20244;-72
2023/12/03 04:05:00;;;;;;;9.18;6.25;;;-2.70;65.70;;;;;;6277326;22;20197;-72
2023/12/03 04:07:29;;;;;;;9.65;6.50;;;-2.90;65.00;;;;;;6278086;22;20233;-72
2023/12/03 04:09:56;;;;;;;12.70;8.63;;;-3.00;64.30;;;;;;6277490;22;20191;-72
2023/12/03 04:12:23;;;;;;;34.45;16.48;;;-3.10;65.10;;;;;;6277466;22;20538;-72
2023/12/03 04:14:50;;;;;;;22.27;11.07;;;-3.20;65.30;;;;;;6277710;22;20150;-72
2023/12/03 04:17:17;;;;;;;13.80;7.93;;;-3.20;66.20;;;;;;6277284;22;20272;-72
2023/12/03 04:19:44;;;;;;;14.40;7.93;;;-3.30;66.50;;;;;;6277346;22;20608;-72
2023/12/03 04:22:10;;;;;;;14.23;8.35;;;-3.30;66.50;;;;;;6277870;22;20517;-72
2023/12/03 04:24:39;;;;;;;9.50;6.20;;;-3.30;66.70;;;;;;6277072;22;20172;-72
2023/12/03 04:27:06;;;;;;;10.77;6.97;;;-3.40;66.10;;;;;;6277325;22;20208;-72
2023/12/03 04:29:33;;;;;;;10.48;6.35;;;-3.30;65.50;;;;;;6277260;22;20176;-72
2023/12/03 04:32:00;;;;;;;11.35;6.97;;;-3.40;65.90;;;;;;6277769;22;20172;-72
2023/12/03 04:34:27;;;;;;;15.85;8.77;;;-3.40;66.40;;;;;;6277006;22;20201;-71
2023/12/03 04:36:57;;;;;;;13.70;9.20;;;-3.40;66.60;;;;;;6277441;22;20166;-72
2023/12/03 04:39:24;;;;;;;12.80;8.65;;;-3.40;67.10;;;;;;6277645;22;20150;-72
2023/12/03 04:41:52;;;;;;;9.85;6.82;;;-3.40;67.80;;;;;;6276877;22;20193;-72
2023/12/03 04:44:19;;;;;;;13.20;7.40;;;-3.40;68.00;;;;;;6276925;22;20196;-72
2023/12/03 04:46:46;;;;;;;11.85;7.32;;;-3.40;68.80;;;;;;6276949;22;20162;-72
2023/12/03 04:49:13;;;;;;;11.98;7.68;;;-3.40;70.00;;;;;;6276876;22;20623;-72
2023/12/03 04:51:40;;;;;;;14.13;9.05;;;-3.40;70.30;;;;;;6277477;22;20166;-72
2023/12/03 04:54:07;;;;;;;12.73;8.70;;;-3.40;70.40;;;;;;6277282;22;20201;-72
2023/12/03 04:56:34;;;;;;;13.13;8.68;;;-3.40;70.60;;;;;;6277039;22;20166;-72
2023/12/03 04:59:04;;;;;;;13.55;6.95;;;-3.30;70.70;;;;;;6277452;22;20189;-72
2023/12/03 05:01:31;;;;;;;12.27;7.75;;;-3.30;70.60;;;;;;6277001;22;20168;-72
2023/12/03 05:03:58;;;;;;;14.55;7.63;;;-3.30;70.00;;;;;;6276824;22;20623;-72
2023/12/03 05:06:25;;;;;;;11.38;7.28;;;-3.30;69.60;;;;;;6276990;22;20245;-72
2023/12/03 05:08:52;;;;;;;13.98;7.45;;;-3.30;69.60;;;;;;6277376;22;20488;-72
2023/12/03 05:11:19;;;;;;;14.90;8.93;;;-3.20;69.70;;;;;;6277027;22;20200;-72
2023/12/03 05:13:46;;;;;;;12.10;7.25;;;-3.20;69.30;;;;;;6276640;22;20205;-72
2023/12/03 05:16:14;;;;;;;15.02;8.43;;;-3.30;70.10;;;;;;6277037;22;20166;-72
2023/12/03 05:18:43;;;;;;;15.50;8.85;;;-3.20;69.30;;;;;;6277335;22;20228;-72
2023/12/03 05:21:10;;;;;;;11.50;7.25;;;-3.30;69.10;;;;;;6277057;22;20675;-72
2023/12/03 05:23:37;;;;;;;9.10;6.47;;;-3.40;68.60;;;;;;6277208;22;20219;-72
2023/12/03 05:26:04;;;;;;;13.20;7.82;;;-3.50;68.10;;;;;;6277249;22;20499;-72
2023/12/03 05:28:31;;;;;;;11.77;7.95;;;-3.60;67.50;;;;;;6276803;22;20169;-72
2023/12/03 05:31:03;;;;;;;10.27;6.82;;;-3.60;67.50;;;;;;6276739;22;20165;-72
2023/12/03 05:33:31;;;;;;;14.70;8.18;;;-3.70;66.80;;;;;;6277014;22;20182;-72
2023/12/03 05:35:58;;;;;;;11.70;7.32;;;-3.80;65.60;;;;;;6276653;22;20172;-72
2023/12/03 05:38:25;;;;;;;12.10;7.22;;;-3.90;63.90;;;;;;6276687;22;20268;-72
2023/12/03 05:40:52;;;;;;;10.38;6.43;;;-4.10;62.40;;;;;;6277133;22;20197;-72
2023/12/03 05:43:19;;;;;;;10.65;5.72;;;-4.30;61.70;;;;;;6276131;22;20241;-72
2023/12/03 05:45:48;;;;;;;9.35;5.63;;;-4.50;61.90;;;;;;6276680;22;20197;-72
2023/12/03 05:48:16;;;;;;;10.75;5.90;;;-4.60;63.40;;;;;;6276709;22;20249;-72
2023/12/03 05:50:44;;;;;;;9.82;7.05;;;-4.60;65.00;;;;;;6273191;22;20194;-72
2023/12/03 05:53:11;;;;;;;16.92;7.18;;;-4.70;65.70;;;;;;6275956;22;20197;-71
2023/12/03 05:55:38;;;;;;;12.18;7.97;;;-4.80;66.40;;;;;;6276590;22;20204;-71
2023/12/03 05:58:06;;;;;;;14.85;7.65;;;-4.80;67.00;;;;;;6277123;22;20185;-71
2023/12/03 06:00:34;;;;;;;12.90;8.15;;;-4.80;67.50;;;;;;6276478;22;20169;-71
2023/12/03 06:03:00;;;;;;;17.42;8.38;;;-4.80;67.60;;;;;;6276870;22;20169;-71
2023/12/03 06:05:27;;;;;;;12.65;7.82;;;-4.70;67.30;;;;;;6276960;22;20547;-71
2023/12/03 06:07:56;;;;;;;13.57;9.00;;;-4.80;66.80;;;;;;6277001;22;20197;-71
2023/12/03 06:10:23;;;;;;;10.30;6.60;;;-4.80;66.90;;;;;;6277099;22;20241;-72
2023/12/03 06:12:50;;;;;;;7.93;5.60;;;-4.80;66.60;;;;;;6276373;22;20624;-72
2023/12/03 06:15:17;;;;;;;15.25;7.20;;;-4.90;65.70;;;;;;6276588;22;20631;-71
2023/12/03 06:17:46;;;;;;;12.02;6.50;;;-5.00;64.50;;;;;;6276871;22;20240;-71
2023/12/03 06:20:13;;;;;;;12.02;6.68;;;-5.00;64.50;;;;;;6276895;22;20241;-73
2023/12/03 06:22:40;;;;;;;13.45;6.20;;;-5.10;64.30;;;;;;6276182;22;20208;-72
2023/12/03 06:25:09;;;;;;;10.45;5.82;;;-5.10;64.30;;;;;;6276965;22;20247;-72
2023/12/03 06:27:36;;;;;;;7.25;4.63;;;-5.20;63.90;;;;;;6276687;22;20679;-72
2023/12/03 06:30:03;;;;;;;8.85;4.95;;;-5.20;63.70;;;;;;6276559;22;20166;-72
2023/12/03 06:32:30;;;;;;;12.05;7.25;;;-5.30;63.20;;;;;;6276833;22;20193;-72
2023/12/03 06:34:57;;;;;;;7.78;5.35;;;-5.40;61.70;;;;;;6276305;22;20169;-72
2023/12/03 06:37:23;;;;;;;11.82;5.50;;;-5.50;60.30;;;;;;6275755;22;20249;-71
2023/12/03 06:39:50;;;;;;;8.93;5.57;;;-5.60;60.10;;;;;;6276915;22;20166;-72
2023/12/03 06:42:18;;;;;;;9.93;6.55;;;-5.70;60.50;;;;;;6277914;22;20196;-73
2023/12/03 06:44:45;;;;;;;11.80;6.68;;;-5.80;61.60;;;;;;6275182;22;20268;-72
2023/12/03 06:47:12;;;;;;;12.20;5.88;;;-5.80;62.40;;;;;;6277914;22;20166;-71
2023/12/03 06:49:42;;;;;;;12.90;8.15;;;-5.80;62.80;;;;;;6277803;22;20242;-72
2023/12/03 06:52:09;;;;;;;16.00;8.15;;;-5.80;63.10;;;;;;6278112;22;20208;-71
2023/12/03 06:54:35;;;;;;;13.20;7.60;;;-5.80;63.60;;;;;;6277855;22;20244;-71
2023/12/03 06:57:02;;;;;;;11.40;8.00;;;-5.80;64.00;;;;;;6277323;22;20245;-70
2023/12/03 06:59:31;;;;;;;9.85;5.82;;;-5.70;64.20;;;;;;6277637;22;20224;-72
2023/12/03 07:01:57;;;;;;;8.90;5.32;;;-5.70;63.90;;;;;;6278005;22;20245;-71
2023/12/03 07:04:24;;;;;;;9.20;5.82;;;-5.80;63.00;;;;;;6277781;22;20165;-71
2023/12/03 07:06:51;;;;;;;9.07;6.28;;;-5.90;62.60;;;;;;6277863;22;20165;-71
2023/12/03 07:09:18;;;;;;;11.48;6.78;;;-5.90;62.20;;;;;;6277712;22;20560;-71
2023/12/03 07:11:45;;;;;;;14.88;9.55;;;-5.90;61.80;;;;;;6277436;22;20197;-71
2023/12/03 07:14:12;;;;;;;15.60;9.55;;;-5.80;62.30;;;;;;6277481;22;20208;-71
2023/12/03 07:16:40;;;;;;;16.35;10.07;;;-5.70;63.70;;;;;;6277434;22;20539;-71
2023/12/03 07:19:08;;;;;;;15.32;9.98;;;-5.50;64.30;;;;;;6277192;22;20220;-71
2023/12/03 07:21:35;;;;;;;11.70;7.90;;;-5.40;64.70;;;;;;6277135;22;20169;-71
2023/12/03 07:24:01;;;;;;;13.55;9.13;;;-5.20;65.30;;;;;;6277308;22;20187;-71
2023/12/03 07:26:28;;;;;;;14.85;7.97;;;-5.10;64.50;;;;;;6277317;22;20174;-71
2023/12/03 07:28:56;;;;;;;7.38;5.40;;;-4.90;63.10;;;;;;6277407;22;20534;-71
2023/12/03 07:31:23;;;;;;;7.65;5.32;;;-4.50;61.50;;;;;;6277201;22;20165;-71
2023/12/03 07:33:51;;;;;;;7.68;4.00;;;-4.10;59.40;;;;;;6277132;22;20208;-72
2023/12/03 07:36:19;;;;;;;7.40;4.55;;;-3.80;58.60;;;;;;6277024;22;20197;-71
2023/12/03 07:38:46;;;;;;;13.32;8.52;;;-3.70;57.70;;;;;;6277165;22;20189;-71
2023/12/03 07:41:13;;;;;;;11.30;8.13;;;-3.60;56.10;;;;;;6276316;22;20189;-71
2023/12/03 07:43:40;;;;;;;11.65;7.30;;;-3.70;53.40;;;;;;6275589;22;20670;-73
2023/12/03 07:46:07;;;;;;;11.20;7.63;;;-3.80;53.10;;;;;;6276016;22;20272;-71
2023/12/03 07:48:36;;;;;;;10.02;6.15;;;-3.80;52.80;;;;;;6276744;22;20169;-71
2023/12/03 07:51:10;;;;;;;8.50;6.53;;;-3.90;50.60;;;;;;6277124;22;20539;-71
2023/12/03 07:53:37;;;;;;;11.23;6.85;;;-4.00;51.60;;;;;;6277306;22;20229;-71
2023/12/03 07:56:04;;;;;;;10.27;7.05;;;-4.20;52.20;;;;;;6276113;22;20189;-71
2023/12/03 07:58:35;;;;;;;11.40;6.82;;;-4.30;53.40;;;;;;6276181;22;20225;-71
2023/12/03 08:01:03;;;;;;;9.75;6.63;;;-4.40;54.00;;;;;;6275964;22;20158;-74
2023/12/03 08:03:30;;;;;;;11.45;8.15;;;-4.50;53.70;;;;;;6277006;22;20150;-72
2023/12/03 08:05:57;;;;;;;17.63;9.55;;;-4.50;54.80;;;;;;6275752;22;20244;-71
2023/12/03 08:08:25;;;;;;;19.67;11.13;;;-4.50;55.70;;;;;;6276621;22;20244;-73
2023/12/03 08:10:52;;;;;;;17.05;11.13;;;-4.50;57.00;;;;;;6275324;22;20166;-71
2023/12/03 08:13:19;;;;;;;16.73;9.32;;;-4.50;56.90;;;;;;6277011;22;20248;-71
2023/12/03 08:15:46;;;;;;;14.32;9.95;;;-4.50;57.30;;;;;;6276912;22;20527;-71
2023/12/03 08:18:13;;;;;;;14.93;9.93;;;-4.40;57.20;;;;;;6276608;22;20217;-74
2023/12/03 08:20:40;;;;;;;15.38;9.10;;;-4.30;57.40;;;;;;6276935;22;20547;-71
2023/12/03 08:23:06;;;;;;;16.63;9.35;;;-4.20;57.40;;;;;;6276844;22;20755;-71
2023/12/03 08:25:35;;;;;;;9.77;6.28;;;-4.10;57.30;;;;;;6276437;22;20204;-72
2023/12/03 08:28:02;;;;;;;8.20;5.82;;;-3.90;56.90;;;;;;6276677;22;20201;-71
2023/12/03 08:30:29;;;;;;;8.95;4.70;;;-3.80;56.30;;;;;;6276406;22;20176;-72
2023/12/03 08:32:56;;;;;;;10.70;6.47;;;-3.60;56.20;;;;;;6276867;22;20244;-71
2023/12/03 08:35:23;;;;;;;15.07;9.60;;;-3.30;56.30;;;;;;6276832;22;20162;-71
2023/12/03 08:37:50;;;;;;;20.45;10.30;;;-2.90;52.10;;;;;;6276211;22;20193;-73
2023/12/03 08:40:17;;;;;;;15.50;9.02;;;-2.70;49.50;;;;;;6276655;22;20263;-73
2023/12/03 08:42:45;;;;;;;12.80;9.30;;;-2.60;48.30;;;;;;6276794;22;20248;-73
2023/12/03 08:45:12;;;;;;;12.10;7.50;;;-2.40;47.30;;;;;;6276304;22;20272;-73
2023/12/03 08:47:44;;;;;;;12.23;7.85;;;-2.20;47.60;;;;;;6276930;22;20204;-73
2023/12/03 08:50:11;;;;;;;14.27;9.75;;;-2.00;47.80;;;;;;6275196;22;20215;-73
2023/12/03 08:52:38;;;;;;;12.98;10.07;;;-1.90;49.10;;;;;;6276254;22;20620;-73
2023/12/03 08:55:06;;;;;;;15.27;10.18;;;-1.60;49.90;;;;;;6275141;22;20669;-72
2023/12/03 08:57:33;;;;;;;21.30;13.23;;;-1.30;50.00;;;;;;6275684;22;20165;-72
2023/12/03 09:00:04;;;;;;;19.75;13.77;;;-1.00;50.40;;;;;;6275912;22;20273;-72
2023/12/03 09:02:31;;;;;;;19.02;13.73;;;-0.90;50.90;;;;;;6276055;22;20172;-74
2023/12/03 09:04:58;;;;;;;19.48;13.98;;;-0.70;51.40;;;;;;6275930;22;20248;-73
2023/12/03 09:07:25;;;;;;;17.40;13.55;;;-0.50;52.20;;;;;;6276442;22;20215;-73
2023/12/03 09:09:52;;;;;;;23.00;17.20;;;-0.20;52.30;;;;;;6275714;22;20161;-73
2023/12/03 09:12:19;;;;;;;23.30;15.50;;;0.20;52.30;;;;;;6275275;22;20165;-71
2023/12/03 09:14:45;;;;;;;19.45;14.43;;;0.60;52.40;;;;;;6276171;22;20189;-71
2023/12/03 09:17:14;;;;;;;19.45;13.05;;;0.80;50.90;;;;;;6275314;22;20169;-70
2023/12/03 09:19:41;;;;;;;18.50;14.35;;;1.10;49.80;;;;;;6276329;22;20562;-70
2023/12/03 09:22:08;;;;;;;16.92;12.68;;;1.30;49.50;;;;;;6275897;22;20193;-71
2023/12/03 09:24:35;;;;;;;18.30;12.10;;;1.60;46.20;;;;;;6275935;22;20197;-71
2023/12/03 09:27:02;;;;;;;19.75;14.23;;;1.80;43.50;;;;;;6275657;22;20204;-77
2023/12/03 09:29:28;;;;;;;20.08;13.82;;;1.80;42.80;;;;;;6274893;22;20173;-71
2023/12/03 09:31:55;;;;;;;17.98;14.75;;;1.70;44.10;;;;;;6275929;22;20236;-71
2023/12/03 09:34:24;;;;;;;21.08;14.98;;;1.90;45.00;;;;;;6275338;22;20232;-71
2023/12/03 09:36:50;;;;;;;20.08;14.88;;;2.10;44.70;;;;;;6275981;22;20245;-71
2023/12/03 09:39:17;;;;;;;23.30;17.00;;;2.40;45.10;;;;;;6274717;22;20264;-77
2023/12/03 09:41:49;;;;;;;24.27;16.05;;;2.60;43.60;;;;;;6275922;22;20231;-71
2023/12/03 09:44:22;;;;;;;23.67;17.02;;;2.70;42.50;;;;;;6275749;22;20201;-74
2023/12/03 09:46:50;;;;;;;21.67;17.40;;;2.70;42.50;;;;;;6275099;22;20173;-72
2023/12/03 09:49:22;;;;;;;27.45;20.58;;;2.70;43.50;;;;;;6275653;22;20244;-71
2023/12/03 09:51:51;;;;;;;26.95;18.80;;;2.90;43.40;;;;;;6275878;22;20234;-71
2023/12/03 09:54:21;;;;;;;24.90;18.92;;;2.80;44.10;;;;;;6275853;22;20477;-71
2023/12/03 09:56:48;;;;;;;27.65;18.60;;;2.90;44.80;;;;;;6275637;22;20264;-71
2023/12/03 09:59:16;;;;;;;27.80;19.80;;;3.10;45.50;;;;;;6275537;22;20225;-71
2023/12/03 10:01:43;;;;;;;26.83;18.50;;;3.40;45.80;;;;;;6275897;22;20212;-73
2023/12/03 10:04:10;;;;;;;28.35;20.27;;;3.80;45.70;;;;;;6275330;22;20196;-72
2023/12/03 10:06:43;;;;;;;28.23;19.40;;;4.00;43.70;;;;;;6275511;22;20218;-71
2023/12/03 10:09:13;;;;;;;27.58;19.13;;;4.10;44.20;;;;;;6275641;22;20192;-71
2023/12/03 10:11:43;;;;;;;28.73;21.00;;;4.40;44.40;;;;;;6275809;22;20228;-71
2023/12/03 10:14:12;;;;;;;30.55;22.77;;;4.60;45.10;;;;;;6275113;22;20212;-71
2023/12/03 10:16:40;;;;;;;25.77;19.58;;;5.10;45.50;;;;;;6275569;22;20197;-73
2023/12/03 10:19:07;;;;;;;29.20;19.08;;;5.40;44.80;;;;;;6276245;22;20701;-71
2023/12/03 10:21:34;;;;;;;25.23;18.35;;;5.80;44.50;;;;;;6277275;22;20212;-72
2023/12/03 10:24:03;;;;;;;25.33;19.27;;;6.10;44.10;;;;;;6277142;22;20189;-71
2023/12/03 10:26:32;;;;;;;25.67;18.77;;;6.40;43.50;;;;;;6276996;22;20203;-73
2023/12/03 10:28:58;;;;;;;20.38;16.27;;;6.60;42.30;;;;;;6277190;22;20184;-71
2023/12/03 10:31:30;;;;;;;23.45;17.95;;;6.70;40.70;;;;;;6277047;22;20256;-71
2023/12/03 10:33:57;;;;;;;32.30;19.77;;;6.70;40.50;;;;;;6277189;22;20161;-72
2023/12/03 10:36:24;;;;;;;24.08;18.25;;;6.70;40.70;;;;;;6277120;22;20196;-71
2023/12/03 10:38:51;;;;;;;19.02;14.07;;;6.60;39.20;;;;;;6277104;22;20263;-72
2023/12/03 10:41:18;;;;;;;21.85;15.10;;;6.50;35.40;;;;;;6277519;22;20512;-71
2023/12/03 10:43:46;;;;;;;17.70;13.07;;;6.20;36.30;;;;;;6277217;22;20677;-74
2023/12/03 10:46:14;;;;;;;16.42;13.00;;;6.00;37.50;;;;;;6276113;22;20217;-71
2023/12/03 10:48:41;;;;;;;50.83;21.73;;;5.90;39.00;;;;;;6277332;22;20219;-71
2023/12/03 10:51:10;;;;;;;25.38;16.98;;;6.10;40.10;;;;;;6276792;22;20168;-72
2023/12/03 10:53:42;;;;;;;19.90;13.65;;;6.30;40.80;;;;;;6275581;22;20240;-72
2023/12/03 10:56:09;;;;;;;17.25;13.52;;;6.50;40.80;;;;;;6275701;22;20635;-71
2023/12/03 10:58:38;;;;;;;18.83;14.95;;;6.70;41.00;;;;;;6275885;22;20204;-71
2023/12/03 11:01:15;;;;;;;15.88;12.10;;;6.80;41.60;;;;;;6275670;22;20626;-71
2023/12/03 11:03:54;;;;;;;16.05;11.18;;;7.00;39.30;;;;;;6276991;22;20224;-71
2023/12/03 11:06:23;;;;;;;17.65;13.40;;;6.80;39.40;;;;;;6276962;22;20156;-71
2023/12/03 11:08:51;;;;;;;59.67;33.55;;;6.80;39.90;;;;;;6276285;22;20248;-71
2023/12/03 11:11:20;;;;;;;119.95;58.22;;;6.90;41.60;;;;;;6276216;22;20185;-71
2023/12/03 11:13:49;;;;;;;44.65;29.48;;;7.00;41.40;;;;;;6276795;22;20162;-71
2023/12/03 11:16:18;;;;;;;27.05;18.85;;;7.10;41.30;;;;;;6276923;22;20248;-71
2023/12/03 11:18:50;;;;;;;19.17;14.27;;;7.20;41.50;;;;;;6276504;22;20193;-71
2023/12/03 11:21:23;;;;;;;25.67;16.92;;;7.30;41.40;;;;;;6276496;22;20639;-71
2023/12/03 11:24:07;;;;;;;18.42;14.52;;;7.50;41.50;;;;;;6276368;22;20588;-71
2023/12/03 11:26:34;;;;;;;22.88;17.98;;;7.60;41.30;;;;;;6277090;22;20150;-71
2023/12/03 11:29:01;;;;;;;23.30;17.55;;;7.70;39.30;;;;;;6276498;22;20245;-71
2023/12/03 11:31:29;;;;;;;18.05;13.57;;;7.50;39.50;;;;;;6276582;22;20189;-72
2023/12/03 11:33:57;;;;;;;17.77;13.75;;;7.40;39.20;;;;;;6276554;22;20257;-71
2023/12/03 11:36:36;;;;;;;17.88;13.75;;;7.40;39.80;;;;;;6276890;22;20542;-71
2023/12/03 11:39:03;;;;;;;21.17;14.45;;;7.30;38.90;;;;;;6276192;22;20606;-72
2023/12/03 11:41:36;;;;;;;19.08;15.00;;;7.20;40.10;;;;;;6277215;22;20165;-71
2023/12/03 11:44:18;;;;;;;19.55;14.90;;;7.20;40.90;;;;;;6275285;22;20157;-72
2023/12/03 11:46:49;;;;;;;20.13;14.98;;;7.30;40.90;;;;;;6276255;22;20158;-71
2023/12/03 11:49:16;;;;;;;28.00;18.20;;;7.30;41.10;;;;;;6276553;22;20470;-71
2023/12/03 11:51:46;;;;;;;20.17;15.93;;;7.10;41.20;;;;;;6276609;22;20166;-71
2023/12/03 11:54:18;;;;;;;23.10;16.52;;;6.90;41.60;;;;;;6277118;22;20226;-70
2023/12/03 11:56:46;;;;;;;17.60;14.00;;;6.60;42.00;;;;;;6276276;22;20181;-73
2023/12/03 11:59:14;;;;;;;20.30;15.02;;;6.30;42.50;;;;;;6276642;22;20535;-71
2023/12/03 12:01:40;;;;;;;16.67;14.63;;;5.90;42.80;;;;;;6276560;22;20162;-71
2023/12/03 12:04:09;;;;;;;19.85;14.40;;;5.70;43.40;;;;;;6276499;22;20176;-72
2023/12/03 12:06:36;;;;;;;19.90;14.10;;;5.50;42.30;;;;;;6276238;22;20172;-72
2023/12/03 12:09:12;;;;;;;19.27;14.55;;;5.20;42.30;;;;;;6275558;22;20166;-72
2023/12/03 12:11:39;;;;;;;21.42;15.07;;;4.90;42.70;;;;;;6276219;22;20657;-72
2023/12/03 12:14:06;;;;;;;22.98;15.90;;;4.60;44.00;;;;;;6275199;22;20174;-72
2023/12/03 12:16:36;;;;;;;26.75;18.40;;;4.40;44.60;;;;;;6276193;22;20223;-71
2023/12/03 12:19:04;;;;;;;19.13;15.10;;;4.20;45.00;;;;;;6276909;22;20166;-71
2023/12/03 12:21:32;;;;;;;26.52;17.60;;;4.10;45.90;;;;;;6276313;22;20170;-72
2023/12/03 12:23:59;;;;;;;20.48;13.85;;;4.00;46.60;;;;;;6276328;22;20274;-72
2023/12/03 12:26:26;;;;;;;17.20;12.20;;;4.10;46.70;;;;;;6275698;22;20176;-71
2023/12/03 12:28:53;;;;;;;14.82;10.48;;;4.20;47.20;;;;;;6275948;22;20481;-71
2023/12/03 12:31:26;;;;;;;13.77;9.88;;;4.30;46.80;;;;;;6275846;22;20200;-72
2023/12/03 12:33:55;;;;;;;16.23;12.00;;;4.30;46.40;;;;;;6276732;22;20154;-71
2023/12/03 12:36:22;;;;;;;16.25;12.07;;;4.40;46.40;;;;;;6277110;22;20434;-72
2023/12/03 12:38:51;;;;;;;17.60;12.30;;;4.30;46.50;;;;;;6276707;22;20172;-71
2023/12/03 12:41:19;;;;;;;15.18;11.25;;;4.50;47.20;;;;;;6276957;22;20189;-71